sensor_id;sensor_type;location;lat;lon;timestamp;pressure;altitude;pressure_sealevel;temperature;humidity
49843;BME280;55559;48.898;9.184;2023-04-28T00:01:12;98217.34;;;11.48;100.00
49843;BME280;55559;48.898;9.184;2023-04-28T00:03:39;98232.22;;;11.50;100.00
49843;BME280;55559;48.898;9.184;2023-04-28T00:06:09;98231.09;;;11.43;100.00
49843;BME280;55559;48.898;9.184;2023-04-28T00:08:37;98227.84;;;11.49;100.00
49843;BME280;55559;48.898;9.184;2023-04-28T00:11:08;98227.31;;;11.46;100.00
49843;BME280;55559;48.898;9.184;2023-04-28T00:13:36;98226.34;;;11.47;100.00
49843;BME280;55559;48.898;9.184;2023-04-28T00:16:03;98220.44;;;11.43;100.00
49843;BME280;55559;48.898;9.184;2023-04-28T00:18:31;98217.50;;;11.46;100.00
49843;BME280;55559;48.898;9.184;2023-04-28T00:20:59;98220.91;;;11.39;100.00
49843;BME280;55559;48.898;9.184;2023-04-28T00:23:28;98214.06;;;11.36;100.00
49843;BME280;55559;48.898;9.184;2023-04-28T00:25:56;98216.84;;;11.34;100.00
49843;BME280;55559;48.898;9.184;2023-04-28T00:28:23;98212.06;;;11.38;100.00
49843;BME280;55559;48.898;9.184;2023-04-28T00:30:51;98198.84;;;11.46;100.00
49843;BME280;55559;48.898;9.184;2023-04-28T00:33:18;98203.25;;;11.38;100.00
49843;BME280;55559;48.898;9.184;2023-04-28T00:35:45;98207.91;;;11.35;100.00
49843;BME280;55559;48.898;9.184;2023-04-28T00:38:13;98211.00;;;11.31;100.00
49843;BME280;55559;48.898;9.184;2023-04-28T00:40:42;98215.09;;;11.25;100.00
49843;BME280;55559;48.898;9.184;2023-04-28T00:43:10;98211.19;;;11.20;100.00
49843;BME280;55559;48.898;9.184;2023-04-28T00:45:37;98202.50;;;11.17;100.00
49843;BME280;55559;48.898;9.184;2023-04-28T00:48:05;98200.53;;;11.20;100.00
49843;BME280;55559;48.898;9.184;2023-04-28T00:50:32;98199.13;;;11.25;100.00
49843;BME280;55559;48.898;9.184;2023-04-28T00:52:59;98201.78;;;11.25;100.00
49843;BME280;55559;48.898;9.184;2023-04-28T00:55:31;98193.94;;;11.24;100.00
49843;BME280;55559;48.898;9.184;2023-04-28T00:58:03;98191.13;;;11.25;100.00
49843;BME280;55559;48.898;9.184;2023-04-28T01:00:31;98186.09;;;11.22;100.00
49843;BME280;55559;48.898;9.184;2023-04-28T01:02:59;98184.13;;;11.24;100.00
49843;BME280;55559;48.898;9.184;2023-04-28T01:05:30;98179.22;;;11.20;100.00
49843;BME280;55559;48.898;9.184;2023-04-28T01:07:58;98174.38;;;11.15;100.00
49843;BME280;55559;48.898;9.184;2023-04-28T01:10:26;98182.91;;;11.19;100.00
49843;BME280;55559;48.898;9.184;2023-04-28T01:12:57;98186.25;;;11.21;100.00
49843;BME280;55559;48.898;9.184;2023-04-28T01:15:26;98174.47;;;11.23;100.00
49843;BME280;55559;48.898;9.184;2023-04-28T01:17:55;98171.97;;;11.22;100.00
49843;BME280;55559;48.898;9.184;2023-04-28T01:20:23;98170.13;;;11.22;100.00
49843;BME280;55559;48.898;9.184;2023-04-28T01:22:50;98172.34;;;11.27;100.00
49843;BME280;55559;48.898;9.184;2023-04-28T01:25:20;98169.84;;;11.25;100.00
49843;BME280;55559;48.898;9.184;2023-04-28T01:27:47;98167.31;;;11.24;100.00
49843;BME280;55559;48.898;9.184;2023-04-28T01:30:15;98159.19;;;11.25;100.00
49843;BME280;55559;48.898;9.184;2023-04-28T01:32:43;98150.59;;;11.31;100.00
49843;BME280;55559;48.898;9.184;2023-04-28T01:35:10;98142.47;;;11.33;100.00
49843;BME280;55559;48.898;9.184;2023-04-28T01:37:38;98145.59;;;11.28;100.00
49843;BME280;55559;48.898;9.184;2023-04-28T01:40:07;98144.97;;;11.16;100.00
49843;BME280;55559;48.898;9.184;2023-04-28T01:42:37;98151.91;;;11.00;100.00
49843;BME280;55559;48.898;9.184;2023-04-28T01:45:05;98149.00;;;10.93;100.00
49843;BME280;55559;48.898;9.184;2023-04-28T01:47:32;98152.94;;;10.79;100.00
49843;BME280;55559;48.898;9.184;2023-04-28T01:50:00;98157.44;;;10.78;100.00
49843;BME280;55559;48.898;9.184;2023-04-28T01:52:28;98151.03;;;10.71;100.00
49843;BME280;55559;48.898;9.184;2023-04-28T01:54:56;98147.81;;;10.68;100.00
49843;BME280;55559;48.898;9.184;2023-04-28T01:57:24;98145.03;;;10.69;100.00
49843;BME280;55559;48.898;9.184;2023-04-28T01:59:54;98145.31;;;10.66;100.00
49843;BME280;55559;48.898;9.184;2023-04-28T02:02:23;98144.44;;;10.66;100.00
49843;BME280;55559;48.898;9.184;2023-04-28T02:04:50;98145.59;;;10.63;100.00
49843;BME280;55559;48.898;9.184;2023-04-28T02:07:18;98140.00;;;10.66;100.00
49843;BME280;55559;48.898;9.184;2023-04-28T02:09:46;98129.34;;;10.66;100.00
49843;BME280;55559;48.898;9.184;2023-04-28T02:12:13;98133.66;;;10.67;100.00
49843;BME280;55559;48.898;9.184;2023-04-28T02:14:42;98130.72;;;10.70;100.00
49843;BME280;55559;48.898;9.184;2023-04-28T02:17:11;98129.47;;;10.74;100.00
49843;BME280;55559;48.898;9.184;2023-04-28T02:19:38;98130.69;;;10.80;100.00
49843;BME280;55559;48.898;9.184;2023-04-28T02:22:06;98131.09;;;10.85;100.00
49843;BME280;55559;48.898;9.184;2023-04-28T02:24:34;98120.59;;;10.84;100.00
49843;BME280;55559;48.898;9.184;2023-04-28T02:27:03;98123.13;;;10.85;100.00
49843;BME280;55559;48.898;9.184;2023-04-28T02:29:31;98120.03;;;10.90;100.00
49843;BME280;55559;48.898;9.184;2023-04-28T02:31:58;98121.00;;;10.89;100.00
49843;BME280;55559;48.898;9.184;2023-04-28T02:34:27;98109.66;;;10.87;100.00
49843;BME280;55559;48.898;9.184;2023-04-28T02:36:55;98112.03;;;10.90;100.00
49843;BME280;55559;48.898;9.184;2023-04-28T02:39:22;98110.63;;;10.86;100.00
49843;BME280;55559;48.898;9.184;2023-04-28T02:41:51;98125.22;;;10.82;100.00
49843;BME280;55559;48.898;9.184;2023-04-28T02:44:19;98122.72;;;10.80;100.00
49843;BME280;55559;48.898;9.184;2023-04-28T02:46:47;98126.75;;;10.84;100.00
49843;BME280;55559;48.898;9.184;2023-04-28T02:49:14;98133.91;;;10.84;100.00
49843;BME280;55559;48.898;9.184;2023-04-28T02:51:44;98137.25;;;10.86;100.00
49843;BME280;55559;48.898;9.184;2023-04-28T02:54:11;98136.56;;;10.84;100.00
49843;BME280;55559;48.898;9.184;2023-04-28T02:56:39;98155.41;;;11.00;100.00
49843;BME280;55559;48.898;9.184;2023-04-28T02:59:07;98163.94;;;10.94;100.00
49843;BME280;55559;48.898;9.184;2023-04-28T03:01:34;98168.59;;;10.92;100.00
49843;BME280;55559;48.898;9.184;2023-04-28T03:04:02;98155.78;;;11.05;100.00
49843;BME280;55559;48.898;9.184;2023-04-28T03:06:29;98152.75;;;11.00;100.00
49843;BME280;55559;48.898;9.184;2023-04-28T03:09:00;98139.72;;;10.97;100.00
49843;BME280;55559;48.898;9.184;2023-04-28T03:11:27;98132.72;;;10.96;100.00
49843;BME280;55559;48.898;9.184;2023-04-28T03:13:55;98128.53;;;10.93;100.00
49843;BME280;55559;48.898;9.184;2023-04-28T03:16:22;98126.03;;;10.92;100.00
49843;BME280;55559;48.898;9.184;2023-04-28T03:18:50;98126.03;;;10.92;100.00
49843;BME280;55559;48.898;9.184;2023-04-28T03:21:18;98119.16;;;10.89;100.00
49843;BME280;55559;48.898;9.184;2023-04-28T03:23:45;98108.22;;;10.92;100.00
49843;BME280;55559;48.898;9.184;2023-04-28T03:26:15;98126.50;;;10.77;100.00
49843;BME280;55559;48.898;9.184;2023-04-28T03:28:42;98109.56;;;10.78;100.00
49843;BME280;55559;48.898;9.184;2023-04-28T03:31:10;98101.28;;;10.82;100.00
49843;BME280;55559;48.898;9.184;2023-04-28T03:33:37;98101.19;;;10.73;100.00
49843;BME280;55559;48.898;9.184;2023-04-28T03:36:05;98096.00;;;10.72;100.00
49843;BME280;55559;48.898;9.184;2023-04-28T03:38:33;98093.50;;;10.70;100.00
49843;BME280;55559;48.898;9.184;2023-04-28T03:41:00;98105.03;;;10.61;100.00
49843;BME280;55559;48.898;9.184;2023-04-28T03:43:29;98098.03;;;10.60;100.00
49843;BME280;55559;48.898;9.184;2023-04-28T03:46:10;98090.63;;;10.54;100.00
49843;BME280;55559;48.898;9.184;2023-04-28T03:48:37;98089.63;;;10.55;100.00
49843;BME280;55559;48.898;9.184;2023-04-28T03:51:05;98080.63;;;10.66;100.00
49843;BME280;55559;48.898;9.184;2023-04-28T03:53:32;98091.53;;;10.72;100.00
49843;BME280;55559;48.898;9.184;2023-04-28T03:56:00;98094.63;;;10.68;100.00
49843;BME280;55559;48.898;9.184;2023-04-28T03:58:29;98094.19;;;10.72;100.00
49843;BME280;55559;48.898;9.184;2023-04-28T04:00:56;98086.78;;;10.76;100.00
49843;BME280;55559;48.898;9.184;2023-04-28T04:03:25;98080.31;;;10.78;100.00
49843;BME280;55559;48.898;9.184;2023-04-28T04:05:55;98083.78;;;10.79;100.00
49843;BME280;55559;48.898;9.184;2023-04-28T04:08:23;98077.22;;;10.83;100.00
49843;BME280;55559;48.898;9.184;2023-04-28T04:10:51;98076.84;;;10.96;100.00
49843;BME280;55559;48.898;9.184;2023-04-28T04:13:19;98068.88;;;10.96;100.00
49843;BME280;55559;48.898;9.184;2023-04-28T04:15:48;98074.03;;;10.97;100.00
49843;BME280;55559;48.898;9.184;2023-04-28T04:18:18;98079.13;;;10.91;100.00
49843;BME280;55559;48.898;9.184;2023-04-28T04:21:10;98080.81;;;10.92;100.00
49843;BME280;55559;48.898;9.184;2023-04-28T04:23:39;98077.16;;;10.93;100.00
49843;BME280;55559;48.898;9.184;2023-04-28T04:26:06;98083.91;;;10.87;100.00
49843;BME280;55559;48.898;9.184;2023-04-28T04:28:34;98074.13;;;10.88;100.00
49843;BME280;55559;48.898;9.184;2023-04-28T04:31:07;98081.78;;;10.91;100.00
49843;BME280;55559;48.898;9.184;2023-04-28T04:33:34;98086.94;;;10.92;100.00
49843;BME280;55559;48.898;9.184;2023-04-28T04:36:04;98081.03;;;10.98;100.00
49843;BME280;55559;48.898;9.184;2023-04-28T04:38:32;98078.25;;;11.00;100.00
49843;BME280;55559;48.898;9.184;2023-04-28T04:41:08;98080.22;;;10.98;100.00
49843;BME280;55559;48.898;9.184;2023-04-28T04:43:36;98079.91;;;11.01;100.00
49843;BME280;55559;48.898;9.184;2023-04-28T04:46:03;98081.88;;;10.99;100.00
49843;BME280;55559;48.898;9.184;2023-04-28T04:48:32;98072.91;;;11.00;100.00
49843;BME280;55559;48.898;9.184;2023-04-28T04:51:00;98078.63;;;11.05;100.00
49843;BME280;55559;48.898;9.184;2023-04-28T04:53:27;98078.47;;;11.07;100.00
49843;BME280;55559;48.898;9.184;2023-04-28T04:55:56;98070.75;;;11.13;100.00
49843;BME280;55559;48.898;9.184;2023-04-28T04:58:24;98076.06;;;11.13;100.00
49843;BME280;55559;48.898;9.184;2023-04-28T05:01:09;98070.97;;;11.20;100.00
49843;BME280;55559;48.898;9.184;2023-04-28T05:03:38;98055.84;;;11.21;100.00
49843;BME280;55559;48.898;9.184;2023-04-28T05:06:07;98056.13;;;11.17;100.00
49843;BME280;55559;48.898;9.184;2023-04-28T05:08:43;98054.53;;;11.25;100.00
49843;BME280;55559;48.898;9.184;2023-04-28T05:11:11;98055.69;;;11.22;100.00
49843;BME280;55559;48.898;9.184;2023-04-28T05:13:39;98067.84;;;11.25;100.00
49843;BME280;55559;48.898;9.184;2023-04-28T05:16:07;98066.34;;;11.22;100.00
49843;BME280;55559;48.898;9.184;2023-04-28T05:18:54;98067.94;;;11.33;100.00
49843;BME280;55559;48.898;9.184;2023-04-28T05:21:21;98062.31;;;11.36;100.00
49843;BME280;55559;48.898;9.184;2023-04-28T05:23:49;98064.38;;;11.42;100.00
49843;BME280;55559;48.898;9.184;2023-04-28T05:26:17;98062.69;;;11.41;100.00
49843;BME280;55559;48.898;9.184;2023-04-28T05:28:44;98067.88;;;11.43;100.00
49843;BME280;55559;48.898;9.184;2023-04-28T05:31:13;98063.69;;;11.40;100.00
49843;BME280;55559;48.898;9.184;2023-04-28T05:33:41;98064.38;;;11.42;100.00
49843;BME280;55559;48.898;9.184;2023-04-28T05:36:10;98081.84;;;11.45;100.00
49843;BME280;55559;48.898;9.184;2023-04-28T05:38:37;98070.09;;;11.47;100.00
49843;BME280;55559;48.898;9.184;2023-04-28T05:41:05;98083.53;;;11.46;100.00
49843;BME280;55559;48.898;9.184;2023-04-28T05:43:33;98078.38;;;11.62;100.00
49843;BME280;55559;48.898;9.184;2023-04-28T05:46:02;98072.03;;;11.63;100.00
49843;BME280;55559;48.898;9.184;2023-04-28T05:48:29;98077.91;;;11.67;100.00
49843;BME280;55559;48.898;9.184;2023-04-28T05:50:57;98064.91;;;11.64;100.00
49843;BME280;55559;48.898;9.184;2023-04-28T05:53:26;98065.81;;;11.72;100.00
49843;BME280;55559;48.898;9.184;2023-04-28T05:55:53;98064.28;;;11.70;100.00
49843;BME280;55559;48.898;9.184;2023-04-28T05:58:21;98067.94;;;11.69;100.00
49843;BME280;55559;48.898;9.184;2023-04-28T06:00:48;98055.53;;;11.60;100.00
49843;BME280;55559;48.898;9.184;2023-04-28T06:03:16;98063.22;;;11.63;100.00
49843;BME280;55559;48.898;9.184;2023-04-28T06:05:45;98064.34;;;11.60;100.00
49843;BME280;55559;48.898;9.184;2023-04-28T06:08:13;98061.50;;;11.53;100.00
49843;BME280;55559;48.898;9.184;2023-04-28T06:10:42;98067.78;;;11.52;100.00
49843;BME280;55559;48.898;9.184;2023-04-28T06:13:09;98069.47;;;11.53;100.00
49843;BME280;55559;48.898;9.184;2023-04-28T06:15:37;98066.63;;;11.55;100.00
49843;BME280;55559;48.898;9.184;2023-04-28T06:18:04;98065.97;;;11.53;100.00
49843;BME280;55559;48.898;9.184;2023-04-28T06:20:32;98077.63;;;11.52;100.00
49843;BME280;55559;48.898;9.184;2023-04-28T06:23:00;98070.84;;;11.58;100.00
49843;BME280;55559;48.898;9.184;2023-04-28T06:25:28;98071.66;;;11.58;100.00
49843;BME280;55559;48.898;9.184;2023-04-28T06:27:57;98073.81;;;11.54;100.00
49843;BME280;55559;48.898;9.184;2023-04-28T06:30:25;98073.56;;;11.66;100.00
49843;BME280;55559;48.898;9.184;2023-04-28T06:32:53;98079.88;;;11.65;100.00
49843;BME280;55559;48.898;9.184;2023-04-28T06:35:22;98076.16;;;11.76;100.00
49843;BME280;55559;48.898;9.184;2023-04-28T06:37:50;98062.09;;;11.65;100.00
49843;BME280;55559;48.898;9.184;2023-04-28T06:40:17;98066.56;;;11.65;100.00
49843;BME280;55559;48.898;9.184;2023-04-28T06:42:51;98066.41;;;11.66;100.00
49843;BME280;55559;48.898;9.184;2023-04-28T06:45:24;98069.22;;;11.65;100.00
49843;BME280;55559;48.898;9.184;2023-04-28T06:47:55;98065.59;;;11.66;100.00
49843;BME280;55559;48.898;9.184;2023-04-28T06:50:23;98066.25;;;11.68;100.00
49843;BME280;55559;48.898;9.184;2023-04-28T06:52:50;98075.09;;;11.68;100.00
49843;BME280;55559;48.898;9.184;2023-04-28T06:55:18;98067.94;;;11.69;100.00
49843;BME280;55559;48.898;9.184;2023-04-28T06:57:46;98068.25;;;11.66;100.00
49843;BME280;55559;48.898;9.184;2023-04-28T07:00:14;98059.63;;;11.72;100.00
49843;BME280;55559;48.898;9.184;2023-04-28T07:02:43;98063.81;;;11.75;100.00
49843;BME280;55559;48.898;9.184;2023-04-28T07:05:10;98056.66;;;11.75;100.00
49843;BME280;55559;48.898;9.184;2023-04-28T07:07:38;98057.81;;;11.72;100.00
49843;BME280;55559;48.898;9.184;2023-04-28T07:10:07;98055.53;;;11.78;100.00
49843;BME280;55559;48.898;9.184;2023-04-28T07:12:35;98052.34;;;11.74;100.00
49843;BME280;55559;48.898;9.184;2023-04-28T07:15:03;98050.50;;;11.75;100.00
49843;BME280;55559;48.898;9.184;2023-04-28T07:17:31;98061.75;;;11.68;100.00
49843;BME280;55559;48.898;9.184;2023-04-28T07:20:00;98053.94;;;11.67;100.00
49843;BME280;55559;48.898;9.184;2023-04-28T07:22:27;98052.34;;;11.74;100.00
49843;BME280;55559;48.898;9.184;2023-04-28T07:24:55;98056.97;;;11.72;100.00
49843;BME280;55559;48.898;9.184;2023-04-28T07:27:22;98055.31;;;11.71;100.00
49843;BME280;55559;48.898;9.184;2023-04-28T07:29:49;98060.41;;;11.82;100.00
49843;BME280;55559;48.898;9.184;2023-04-28T07:32:17;98053.75;;;11.86;100.00
49843;BME280;55559;48.898;9.184;2023-04-28T07:34:44;98049.34;;;11.95;100.00
49843;BME280;55559;48.898;9.184;2023-04-28T07:37:13;98065.09;;;11.88;100.00
49843;BME280;55559;48.898;9.184;2023-04-28T07:39:41;98063.22;;;11.81;100.00
49843;BME280;55559;48.898;9.184;2023-04-28T07:42:08;98069.06;;;11.84;100.00
49843;BME280;55559;48.898;9.184;2023-04-28T07:44:36;98065.88;;;11.81;100.00
49843;BME280;55559;48.898;9.184;2023-04-28T07:47:03;98072.03;;;11.81;100.00
49843;BME280;55559;48.898;9.184;2023-04-28T07:49:31;98080.19;;;11.80;100.00
49843;BME280;55559;48.898;9.184;2023-04-28T07:51:58;98080.63;;;11.75;100.00
49843;BME280;55559;48.898;9.184;2023-04-28T07:54:27;98074.09;;;11.87;100.00
49843;BME280;55559;48.898;9.184;2023-04-28T07:56:58;98076.38;;;11.82;100.00
49843;BME280;55559;48.898;9.184;2023-04-28T07:59:25;98089.34;;;11.77;100.00
49843;BME280;55559;48.898;9.184;2023-04-28T08:01:53;98079.28;;;11.89;100.00
49843;BME280;55559;48.898;9.184;2023-04-28T08:04:20;98086.41;;;11.88;100.00
49843;BME280;55559;48.898;9.184;2023-04-28T08:06:48;98099.06;;;11.68;100.00
49843;BME280;55559;48.898;9.184;2023-04-28T08:09:15;98105.47;;;11.76;100.00
49843;BME280;55559;48.898;9.184;2023-04-28T08:11:44;98103.41;;;11.87;100.00
49843;BME280;55559;48.898;9.184;2023-04-28T08:14:12;98110.88;;;11.84;100.00
49843;BME280;55559;48.898;9.184;2023-04-28T08:16:39;98114.38;;;11.84;100.00
49843;BME280;55559;48.898;9.184;2023-04-28T08:19:07;98109.66;;;11.96;100.00
49843;BME280;55559;48.898;9.184;2023-04-28T08:21:34;98107.66;;;12.16;100.00
49843;BME280;55559;48.898;9.184;2023-04-28T08:24:02;98101.00;;;12.20;100.00
49843;BME280;55559;48.898;9.184;2023-04-28T08:26:30;98108.69;;;12.23;100.00
49843;BME280;55559;48.898;9.184;2023-04-28T08:28:59;98113.94;;;12.33;100.00
49843;BME280;55559;48.898;9.184;2023-04-28T08:31:26;98115.94;;;12.31;100.00
49843;BME280;55559;48.898;9.184;2023-04-28T08:33:54;98107.50;;;12.44;100.00
49843;BME280;55559;48.898;9.184;2023-04-28T08:36:21;98097.59;;;12.62;100.00
49843;BME280;55559;48.898;9.184;2023-04-28T08:38:50;98102.00;;;12.72;100.00
49843;BME280;55559;48.898;9.184;2023-04-28T08:41:17;98105.06;;;12.93;100.00
49843;BME280;55559;48.898;9.184;2023-04-28T08:43:47;98102.00;;;12.80;100.00
49843;BME280;55559;48.898;9.184;2023-04-28T08:46:17;98112.63;;;12.63;100.00
49843;BME280;55559;48.898;9.184;2023-04-28T08:48:48;98118.88;;;12.54;100.00
49843;BME280;55559;48.898;9.184;2023-04-28T08:51:24;98117.72;;;12.83;100.00
49843;BME280;55559;48.898;9.184;2023-04-28T08:53:55;98125.72;;;12.83;100.00
49843;BME280;55559;48.898;9.184;2023-04-28T08:56:26;98122.81;;;13.02;100.00
49843;BME280;55559;48.898;9.184;2023-04-28T08:59:01;98119.72;;;13.15;100.00
49843;BME280;55559;48.898;9.184;2023-04-28T09:01:30;98119.75;;;13.32;100.00
49843;BME280;55559;48.898;9.184;2023-04-28T09:04:00;98113.56;;;13.31;100.00
49843;BME280;55559;48.898;9.184;2023-04-28T09:06:31;98123.41;;;13.31;100.00
49843;BME280;55559;48.898;9.184;2023-04-28T09:09:17;98120.63;;;13.40;100.00
49843;BME280;55559;48.898;9.184;2023-04-28T09:11:52;98122.88;;;13.19;100.00
49843;BME280;55559;48.898;9.184;2023-04-28T09:14:21;98131.25;;;13.24;100.00
49843;BME280;55559;48.898;9.184;2023-04-28T09:16:50;98119.91;;;13.30;100.00
49843;BME280;55559;48.898;9.184;2023-04-28T09:19:18;98133.66;;;13.44;100.00
49843;BME280;55559;48.898;9.184;2023-04-28T09:21:46;98141.03;;;13.58;100.00
49843;BME280;55559;48.898;9.184;2023-04-28T09:24:26;98130.41;;;13.74;100.00
49843;BME280;55559;48.898;9.184;2023-04-28T09:26:54;98142.28;;;13.29;100.00
49843;BME280;55559;48.898;9.184;2023-04-28T09:29:21;98139.84;;;13.44;100.00
49843;BME280;55559;48.898;9.184;2023-04-28T09:31:51;98144.53;;;13.50;100.00
49843;BME280;55559;48.898;9.184;2023-04-28T09:34:19;98143.06;;;13.56;100.00
49843;BME280;55559;48.898;9.184;2023-04-28T09:36:46;98133.69;;;13.60;100.00
49843;BME280;55559;48.898;9.184;2023-04-28T09:39:14;98133.06;;;13.74;100.00
49843;BME280;55559;48.898;9.184;2023-04-28T09:41:54;98117.69;;;14.01;100.00
49843;BME280;55559;48.898;9.184;2023-04-28T09:44:21;98112.66;;;14.39;100.00
49843;BME280;55559;48.898;9.184;2023-04-28T09:46:50;98107.81;;;14.43;100.00
49843;BME280;55559;48.898;9.184;2023-04-28T09:49:17;98111.84;;;14.39;100.00
49843;BME280;55559;48.898;9.184;2023-04-28T09:51:45;98104.47;;;14.49;100.00
49843;BME280;55559;48.898;9.184;2023-04-28T09:54:12;98101.22;;;14.78;100.00
49843;BME280;55559;48.898;9.184;2023-04-28T09:56:43;98096.13;;;15.00;100.00
49843;BME280;55559;48.898;9.184;2023-04-28T09:59:13;98099.66;;;15.32;100.00
49843;BME280;55559;48.898;9.184;2023-04-28T10:01:42;98090.22;;;15.44;100.00
49843;BME280;55559;48.898;9.184;2023-04-28T10:04:11;98090.03;;;15.46;100.00
49843;BME280;55559;48.898;9.184;2023-04-28T10:06:39;98097.34;;;15.60;100.00
49843;BME280;55559;48.898;9.184;2023-04-28T10:09:07;98088.44;;;15.59;100.00
49843;BME280;55559;48.898;9.184;2023-04-28T10:11:35;98088.56;;;15.66;100.00
49843;BME280;55559;48.898;9.184;2023-04-28T10:14:02;98095.06;;;15.72;100.00
49843;BME280;55559;48.898;9.184;2023-04-28T10:16:30;98086.69;;;15.67;100.00
49843;BME280;55559;48.898;9.184;2023-04-28T10:18:59;98081.78;;;15.55;100.00
49843;BME280;55559;48.898;9.184;2023-04-28T10:21:34;98086.22;;;15.40;100.00
49843;BME280;55559;48.898;9.184;2023-04-28T10:24:09;98089.75;;;15.40;100.00
49843;BME280;55559;48.898;9.184;2023-04-28T10:27:06;98088.56;;;15.66;100.00
49843;BME280;55559;48.898;9.184;2023-04-28T10:29:34;98084.19;;;15.96;100.00
49843;BME280;55559;48.898;9.184;2023-04-28T10:32:19;98085.91;;;16.27;100.00
49843;BME280;55559;48.898;9.184;2023-04-28T10:34:48;98086.59;;;16.29;100.00
49843;BME280;55559;48.898;9.184;2023-04-28T10:37:17;98085.19;;;16.33;100.00
49843;BME280;55559;48.898;9.184;2023-04-28T10:42:53;98083.91;;;16.74;100.00
49843;BME280;55559;48.898;9.184;2023-04-28T10:46:00;98081.31;;;16.66;100.00
49843;BME280;55559;48.898;9.184;2023-04-28T10:51:32;98088.03;;;16.85;100.00
49843;BME280;55559;48.898;9.184;2023-04-28T10:54:14;98095.97;;;16.63;100.00
49843;BME280;55559;48.898;9.184;2023-04-28T10:59:43;98095.09;;;16.63;100.00
49843;BME280;55559;48.898;9.184;2023-04-28T11:02:40;98102.88;;;16.58;100.00
49843;BME280;55559;48.898;9.184;2023-04-28T11:05:16;98090.59;;;16.63;100.00
49843;BME280;55559;48.898;9.184;2023-04-28T11:11:24;98104.00;;;16.48;100.00
49843;BME280;55559;48.898;9.184;2023-04-28T11:13:53;98095.88;;;16.18;100.00
49843;BME280;55559;48.898;9.184;2023-04-28T11:16:23;98095.75;;;16.35;100.00
49843;BME280;55559;48.898;9.184;2023-04-28T11:18:53;98105.06;;;16.39;100.00
49843;BME280;55559;48.898;9.184;2023-04-28T11:21:22;98102.69;;;16.59;100.00
49843;BME280;55559;48.898;9.184;2023-04-28T11:23:50;98101.69;;;16.60;100.00
49843;BME280;55559;48.898;9.184;2023-04-28T11:26:18;98085.59;;;16.60;100.00
49843;BME280;55559;48.898;9.184;2023-04-28T11:28:48;98101.97;;;16.65;100.00
49843;BME280;55559;48.898;9.184;2023-04-28T11:31:16;98102.63;;;16.67;100.00
49843;BME280;55559;48.898;9.184;2023-04-28T11:33:52;98096.94;;;16.47;100.00
49843;BME280;55559;48.898;9.184;2023-04-28T11:36:32;98101.56;;;16.39;100.00
49843;BME280;55559;48.898;9.184;2023-04-28T11:39:00;98100.41;;;16.56;100.00
49843;BME280;55559;48.898;9.184;2023-04-28T11:41:30;98095.28;;;16.31;100.00
49843;BME280;55559;48.898;9.184;2023-04-28T11:44:08;98106.25;;;16.22;100.00
49843;BME280;55559;48.898;9.184;2023-04-28T11:46:44;98104.34;;;15.92;100.00
49843;BME280;55559;48.898;9.184;2023-04-28T11:49:16;98096.16;;;15.86;100.00
49843;BME280;55559;48.898;9.184;2023-04-28T11:51:44;98093.72;;;15.99;100.00
49843;BME280;55559;48.898;9.184;2023-04-28T11:54:19;98101.31;;;16.10;100.00
49843;BME280;55559;48.898;9.184;2023-04-28T11:56:47;98094.56;;;16.38;100.00
49843;BME280;55559;48.898;9.184;2023-04-28T11:59:15;98095.09;;;16.33;100.00
49843;BME280;55559;48.898;9.184;2023-04-28T12:01:48;98099.91;;;16.38;100.00
49843;BME280;55559;48.898;9.184;2023-04-28T12:04:27;98097.88;;;16.02;100.00
49843;BME280;55559;48.898;9.184;2023-04-28T12:06:59;98101.88;;;16.06;100.00
49843;BME280;55559;48.898;9.184;2023-04-28T12:09:27;98104.50;;;16.29;100.00
49843;BME280;55559;48.898;9.184;2023-04-28T12:11:55;98094.47;;;16.08;100.00
49843;BME280;55559;48.898;9.184;2023-04-28T12:14:24;98107.78;;;16.01;100.00
49843;BME280;55559;48.898;9.184;2023-04-28T12:16:51;98107.31;;;15.97;100.00
49843;BME280;55559;48.898;9.184;2023-04-28T12:19:19;98096.03;;;16.02;100.00
49843;BME280;55559;48.898;9.184;2023-04-28T12:22:04;98112.66;;;15.97;100.00
49843;BME280;55559;48.898;9.184;2023-04-28T12:24:32;98102.44;;;15.70;100.00
49843;BME280;55559;48.898;9.184;2023-04-28T12:27:13;98117.78;;;15.53;100.00
49843;BME280;55559;48.898;9.184;2023-04-28T12:29:43;98123.75;;;15.40;100.00
49843;BME280;55559;48.898;9.184;2023-04-28T12:32:12;98135.22;;;15.17;100.00
49843;BME280;55559;48.898;9.184;2023-04-28T12:34:40;98134.47;;;14.92;100.00
49843;BME280;55559;48.898;9.184;2023-04-28T12:37:08;98154.63;;;14.14;100.00
49843;BME280;55559;48.898;9.184;2023-04-28T12:39:39;98171.31;;;14.00;100.00
49843;BME280;55559;48.898;9.184;2023-04-28T12:42:06;98148.94;;;14.09;100.00
49843;BME280;55559;48.898;9.184;2023-04-28T12:44:35;98151.78;;;13.99;100.00
49843;BME280;55559;48.898;9.184;2023-04-28T12:47:06;98147.78;;;13.95;100.00
49843;BME280;55559;48.898;9.184;2023-04-28T12:49:34;98119.50;;;13.76;100.00
49843;BME280;55559;48.898;9.184;2023-04-28T12:52:02;98109.00;;;14.07;100.00
49843;BME280;55559;48.898;9.184;2023-04-28T12:54:30;98082.75;;;14.36;100.00
49843;BME280;55559;48.898;9.184;2023-04-28T12:56:57;98078.88;;;14.46;100.00
49843;BME280;55559;48.898;9.184;2023-04-28T12:59:25;98077.16;;;14.70;100.00
49843;BME280;55559;48.898;9.184;2023-04-28T13:01:54;98074.16;;;14.73;100.00
49843;BME280;55559;48.898;9.184;2023-04-28T13:04:23;98065.56;;;14.94;100.00
49843;BME280;55559;48.898;9.184;2023-04-28T13:06:51;98066.75;;;15.23;100.00
49843;BME280;55559;48.898;9.184;2023-04-28T13:09:19;98056.56;;;15.65;100.00
49843;BME280;55559;48.898;9.184;2023-04-28T13:11:46;98057.59;;;15.63;100.00
49843;BME280;55559;48.898;9.184;2023-04-28T13:14:14;98061.94;;;15.65;100.00